CYDP/YDP METAR and TAF weather

Enter ICAO airport designator
Station Type Date Time Source
CYDP METAR 2019/02/23 00:00 UTC NOAA

CYDP 230000Z 30028G35KT 15SM DRSN SCT110 BKN220 M22/M27 A2982 RMK AC3CI2 LAST STAFFED OB/NEXT 240900 VIA CYQX SLP100


Station Type Date Time Source
CYDP Decoded METAR 2019/02/23 00:00 UTC NOAA

Nain, Nfld, Canada (CYDP) 56-33N 061-41W 7M
Feb 22, 2019 - 07:00 PM EST / 2019.02.23 0000 UTC
Wind: from the WNW (300 degrees) at 32 MPH (28 KT) gusting to 40 MPH (35 KT):0
Visibility: 15 mile(s):0
Sky conditions: mostly cloudy
Weather: low drifting snow
Temperature: -7 F (-22 C)
Windchill: -36 F (-38 C):2
Dew Point: -16 F (-27 C)
Relative Humidity: 63%
Pressure (altimeter): 29.82 in. Hg (1009 hPa)
ob: CYDP 230000Z 30028G35KT 15SM DRSN SCT110 BKN220 M22/M27 A2982 RMK AC3CI2 LAST STAFFED OB/NEXT 240900 VIA CYQX SLP100
cycle: 0

Station Type Date Time Source
CYDP TAF 2019/02/22 20:00 UTC NOAA

TAF CYDP 221938Z 2220/2224 30020G30KT P6SM FEW100
RMK NXT FCST WILL BE ISSUED AT 231045Z


Example: see airport list